sensor_id;sensor_type;location;lat;lon;timestamp;temperature;humidity
10443;DHT22;5269;51.146;16.986;2022-10-16T06:55:21;15.10;99.90
10443;DHT22;5269;51.146;16.986;2022-10-16T06:57:48;15.10;99.90
10443;DHT22;5269;51.146;16.986;2022-10-16T07:00:16;15.10;99.90
10443;DHT22;5269;51.146;16.986;2022-10-16T07:02:43;15.20;99.90
10443;DHT22;5269;51.146;16.986;2022-10-16T07:09:00;15.20;99.90
10443;DHT22;5269;51.146;16.986;2022-10-16T07:14:50;15.30;99.90
10443;DHT22;5269;51.146;16.986;2022-10-16T07:17:19;15.40;99.90
10443;DHT22;5269;51.146;16.986;2022-10-16T07:19:46;15.50;99.90
10443;DHT22;5269;51.146;16.986;2022-10-16T07:22:13;15.60;99.90
10443;DHT22;5269;51.146;16.986;2022-10-16T07:24:40;15.60;99.90
10443;DHT22;5269;51.146;16.986;2022-10-16T07:27:07;15.60;99.90
10443;DHT22;5269;51.146;16.986;2022-10-16T07:29:34;15.70;99.90
10443;DHT22;5269;51.146;16.986;2022-10-16T07:32:03;15.70;99.90
10443;DHT22;5269;51.146;16.986;2022-10-16T07:34:30;15.60;99.90
10443;DHT22;5269;51.146;16.986;2022-10-16T07:36:56;15.60;99.90
10443;DHT22;5269;51.146;16.986;2022-10-16T07:39:23;15.60;99.90
10443;DHT22;5269;51.146;16.986;2022-10-16T07:41:50;15.70;99.90
10443;DHT22;5269;51.146;16.986;2022-10-16T07:44:17;15.70;99.90
10443;DHT22;5269;51.146;16.986;2022-10-16T07:46:44;15.90;99.90
10443;DHT22;5269;51.146;16.986;2022-10-16T07:49:12;15.90;99.90
10443;DHT22;5269;51.146;16.986;2022-10-16T07:51:39;15.90;99.90
10443;DHT22;5269;51.146;16.986;2022-10-16T07:54:07;15.90;99.90
10443;DHT22;5269;51.146;16.986;2022-10-16T07:56:34;15.90;99.90
10443;DHT22;5269;51.146;16.986;2022-10-16T07:59:01;16.00;99.90
10443;DHT22;5269;51.146;16.986;2022-10-16T08:01:28;16.00;99.90
10443;DHT22;5269;51.146;16.986;2022-10-16T08:03:55;16.00;99.90
10443;DHT22;5269;51.146;16.986;2022-10-16T08:06:25;16.10;99.90
10443;DHT22;5269;51.146;16.986;2022-10-16T08:08:52;16.30;99.90
10443;DHT22;5269;51.146;16.986;2022-10-16T08:11:19;16.30;99.90
10443;DHT22;5269;51.146;16.986;2022-10-16T08:13:46;16.40;99.90
10443;DHT22;5269;51.146;16.986;2022-10-16T08:16:13;16.50;99.90
10443;DHT22;5269;51.146;16.986;2022-10-16T08:18:40;16.60;99.90
10443;DHT22;5269;51.146;16.986;2022-10-16T08:21:13;16.60;99.90
10443;DHT22;5269;51.146;16.986;2022-10-16T08:23:41;16.70;99.90
10443;DHT22;5269;51.146;16.986;2022-10-16T08:26:09;16.80;99.90
10443;DHT22;5269;51.146;16.986;2022-10-16T08:28:37;16.80;99.90
10443;DHT22;5269;51.146;16.986;2022-10-16T08:31:08;16.80;99.90
10443;DHT22;5269;51.146;16.986;2022-10-16T08:33:35;16.80;99.90
10443;DHT22;5269;51.146;16.986;2022-10-16T08:36:03;16.90;99.90
10443;DHT22;5269;51.146;16.986;2022-10-16T08:38:31;17.00;99.90
10443;DHT22;5269;51.146;16.986;2022-10-16T08:41:13;17.10;99.90
10443;DHT22;5269;51.146;16.986;2022-10-16T08:44:01;17.20;99.90
10443;DHT22;5269;51.146;16.986;2022-10-16T08:46:37;17.30;99.90
10443;DHT22;5269;51.146;16.986;2022-10-16T08:49:09;17.50;99.90
10443;DHT22;5269;51.146;16.986;2022-10-16T08:51:38;17.70;99.90
10443;DHT22;5269;51.146;16.986;2022-10-16T08:57:28;17.70;99.90
10443;DHT22;5269;51.146;16.986;2022-10-16T09:00:00;17.90;99.90
10443;DHT22;5269;51.146;16.986;2022-10-16T09:02:32;18.10;99.90
10443;DHT22;5269;51.146;16.986;2022-10-16T09:05:24;18.10;99.90
10443;DHT22;5269;51.146;16.986;2022-10-16T09:08:03;18.10;99.90
10443;DHT22;5269;51.146;16.986;2022-10-16T09:10:43;18.10;99.90
10443;DHT22;5269;51.146;16.986;2022-10-16T09:13:20;18.20;99.90
10443;DHT22;5269;51.146;16.986;2022-10-16T09:15:52;18.20;99.90
10443;DHT22;5269;51.146;16.986;2022-10-16T09:18:25;18.20;99.90
10443;DHT22;5269;51.146;16.986;2022-10-16T09:21:00;18.20;99.90
10443;DHT22;5269;51.146;16.986;2022-10-16T09:23:29;18.30;99.90
10443;DHT22;5269;51.146;16.986;2022-10-16T09:25:58;18.30;99.90
10443;DHT22;5269;51.146;16.986;2022-10-16T09:28:26;18.30;99.90
10443;DHT22;5269;51.146;16.986;2022-10-16T09:30:53;18.30;99.90
10443;DHT22;5269;51.146;16.986;2022-10-16T09:33:22;18.30;99.90
10443;DHT22;5269;51.146;16.986;2022-10-16T09:35:51;18.50;99.90
10443;DHT22;5269;51.146;16.986;2022-10-16T09:38:31;18.70;99.90
10443;DHT22;5269;51.146;16.986;2022-10-16T09:41:00;18.70;99.90
10443;DHT22;5269;51.146;16.986;2022-10-16T09:46:07;18.90;99.90
10443;DHT22;5269;51.146;16.986;2022-10-16T09:48:44;19.10;99.90
10443;DHT22;5269;51.146;16.986;2022-10-16T09:51:19;19.20;40.90
10443;DHT22;5269;51.146;16.986;2022-10-16T09:53:47;19.40;75.20
10443;DHT22;5269;51.146;16.986;2022-10-16T09:59:52;19.60;1.00
10443;DHT22;5269;51.146;16.986;2022-10-16T10:05:48;20.00;1.00
10443;DHT22;5269;51.146;16.986;2022-10-16T10:08:20;19.90;99.90
10443;DHT22;5269;51.146;16.986;2022-10-16T10:10:49;19.80;99.90
10443;DHT22;5269;51.146;16.986;2022-10-16T10:13:19;19.60;99.90
10443;DHT22;5269;51.146;16.986;2022-10-16T10:15:51;19.60;1.00
10443;DHT22;5269;51.146;16.986;2022-10-16T10:18:35;19.70;1.00
10443;DHT22;5269;51.146;16.986;2022-10-16T10:21:03;19.80;99.90
10443;DHT22;5269;51.146;16.986;2022-10-16T10:23:33;19.90;1.00
10443;DHT22;5269;51.146;16.986;2022-10-16T10:26:07;20.00;1.00
10443;DHT22;5269;51.146;16.986;2022-10-16T10:28:59;20.20;1.00
10443;DHT22;5269;51.146;16.986;2022-10-16T10:31:36;20.10;1.00
10443;DHT22;5269;51.146;16.986;2022-10-16T10:34:17;20.30;99.90
10443;DHT22;5269;51.146;16.986;2022-10-16T10:36:54;20.40;99.90
10443;DHT22;5269;51.146;16.986;2022-10-16T10:39:28;20.40;99.90
10443;DHT22;5269;51.146;16.986;2022-10-16T10:42:16;20.40;99.90
10443;DHT22;5269;51.146;16.986;2022-10-16T10:47:57;20.80;99.90
10443;DHT22;5269;51.146;16.986;2022-10-16T10:50:37;20.90;1.00
10443;DHT22;5269;51.146;16.986;2022-10-16T10:53:17;21.10;99.90
10443;DHT22;5269;51.146;16.986;2022-10-16T10:55:50;21.10;99.90
10443;DHT22;5269;51.146;16.986;2022-10-16T10:58:46;21.00;99.90
10443;DHT22;5269;51.146;16.986;2022-10-16T11:01:21;21.00;99.90
10443;DHT22;5269;51.146;16.986;2022-10-16T11:07:24;21.40;99.90
10443;DHT22;5269;51.146;16.986;2022-10-16T11:09:58;21.30;99.90
10443;DHT22;5269;51.146;16.986;2022-10-16T11:12:49;21.30;38.10
10443;DHT22;5269;51.146;16.986;2022-10-16T11:15:25;21.50;67.80
10443;DHT22;5269;51.146;16.986;2022-10-16T11:18:19;21.70;28.00
10443;DHT22;5269;51.146;16.986;2022-10-16T11:20:59;21.60;1.00
10443;DHT22;5269;51.146;16.986;2022-10-16T11:23:46;21.70;1.00
10443;DHT22;5269;51.146;16.986;2022-10-16T11:26:28;21.50;89.80
10443;DHT22;5269;51.146;16.986;2022-10-16T11:29:21;21.40;3.60
10443;DHT22;5269;51.146;16.986;2022-10-16T11:31:54;21.50;99.90
10443;DHT22;5269;51.146;16.986;2022-10-16T11:34:25;21.60;1.00
10443;DHT22;5269;51.146;16.986;2022-10-16T11:37:03;21.50;1.00
10443;DHT22;5269;51.146;16.986;2022-10-16T11:39:36;21.60;1.00
10443;DHT22;5269;51.146;16.986;2022-10-16T11:42:18;21.80;1.00
10443;DHT22;5269;51.146;16.986;2022-10-16T11:44:53;21.80;1.00
10443;DHT22;5269;51.146;16.986;2022-10-16T11:47:34;21.60;1.00
10443;DHT22;5269;51.146;16.986;2022-10-16T11:50:09;21.60;1.00
10443;DHT22;5269;51.146;16.986;2022-10-16T11:52:44;21.60;1.00
10443;DHT22;5269;51.146;16.986;2022-10-16T11:55:21;21.30;1.00
10443;DHT22;5269;51.146;16.986;2022-10-16T11:58:01;21.30;1.00
10443;DHT22;5269;51.146;16.986;2022-10-16T12:00:39;21.20;1.00
10443;DHT22;5269;51.146;16.986;2022-10-16T12:03:15;21.30;1.00
10443;DHT22;5269;51.146;16.986;2022-10-16T12:06:02;21.20;1.00
10443;DHT22;5269;51.146;16.986;2022-10-16T12:08:39;21.10;1.00
10443;DHT22;5269;51.146;16.986;2022-10-16T12:11:08;21.00;1.00
10443;DHT22;5269;51.146;16.986;2022-10-16T12:13:41;21.10;1.00
10443;DHT22;5269;51.146;16.986;2022-10-16T12:16:50;21.10;1.00
10443;DHT22;5269;51.146;16.986;2022-10-16T12:19:22;21.00;1.00
10443;DHT22;5269;51.146;16.986;2022-10-16T12:21:51;21.10;1.00
10443;DHT22;5269;51.146;16.986;2022-10-16T12:24:27;21.10;1.00
10443;DHT22;5269;51.146;16.986;2022-10-16T12:26:56;21.00;1.00
10443;DHT22;5269;51.146;16.986;2022-10-16T12:29:32;21.00;1.00
10443;DHT22;5269;51.146;16.986;2022-10-16T12:32:00;21.00;1.00
10443;DHT22;5269;51.146;16.986;2022-10-16T12:34:29;20.90;1.00
10443;DHT22;5269;51.146;16.986;2022-10-16T12:37:09;20.90;1.00
10443;DHT22;5269;51.146;16.986;2022-10-16T12:39:36;21.00;1.00
10443;DHT22;5269;51.146;16.986;2022-10-16T12:42:05;20.80;1.00
10443;DHT22;5269;51.146;16.986;2022-10-16T12:44:35;21.00;1.00
10443;DHT22;5269;51.146;16.986;2022-10-16T12:47:02;20.90;1.00
10443;DHT22;5269;51.146;16.986;2022-10-16T12:49:36;21.00;1.00
10443;DHT22;5269;51.146;16.986;2022-10-16T12:54:47;21.00;1.00
10443;DHT22;5269;51.146;16.986;2022-10-16T12:57:28;21.00;1.00
10443;DHT22;5269;51.146;16.986;2022-10-16T13:00:04;20.90;99.90
10443;DHT22;5269;51.146;16.986;2022-10-16T13:02:53;20.90;99.90
10443;DHT22;5269;51.146;16.986;2022-10-16T13:05:44;20.90;99.90
10443;DHT22;5269;51.146;16.986;2022-10-16T13:08:34;20.80;99.90
10443;DHT22;5269;51.146;16.986;2022-10-16T13:11:11;20.90;99.90
10443;DHT22;5269;51.146;16.986;2022-10-16T13:14:03;20.80;99.90
10443;DHT22;5269;51.146;16.986;2022-10-16T13:16:48;20.80;99.90
10443;DHT22;5269;51.146;16.986;2022-10-16T13:19:28;20.90;99.90
10443;DHT22;5269;51.146;16.986;2022-10-16T13:22:00;20.80;99.90
10443;DHT22;5269;51.146;16.986;2022-10-16T13:24:45;20.70;99.90
10443;DHT22;5269;51.146;16.986;2022-10-16T13:27:21;20.70;1.00
10443;DHT22;5269;51.146;16.986;2022-10-16T13:29:53;20.80;1.00
10443;DHT22;5269;51.146;16.986;2022-10-16T13:32:23;21.00;99.90
10443;DHT22;5269;51.146;16.986;2022-10-16T13:34:52;21.00;99.90
10443;DHT22;5269;51.146;16.986;2022-10-16T13:37:21;20.90;99.90
10443;DHT22;5269;51.146;16.986;2022-10-16T13:40:06;20.80;99.90
10443;DHT22;5269;51.146;16.986;2022-10-16T13:42:38;20.80;99.90
10443;DHT22;5269;51.146;16.986;2022-10-16T13:45:18;20.70;99.90
10443;DHT22;5269;51.146;16.986;2022-10-16T13:47:47;20.70;99.90
10443;DHT22;5269;51.146;16.986;2022-10-16T13:50:18;20.80;99.90
10443;DHT22;5269;51.146;16.986;2022-10-16T13:52:47;21.00;99.90
10443;DHT22;5269;51.146;16.986;2022-10-16T13:55:16;21.00;99.90
10443;DHT22;5269;51.146;16.986;2022-10-16T13:57:44;21.10;99.90
10443;DHT22;5269;51.146;16.986;2022-10-16T14:00:19;21.10;99.90
10443;DHT22;5269;51.146;16.986;2022-10-16T14:02:51;21.30;99.90
10443;DHT22;5269;51.146;16.986;2022-10-16T14:05:19;21.40;99.90
10443;DHT22;5269;51.146;16.986;2022-10-16T14:07:49;21.20;99.90
10443;DHT22;5269;51.146;16.986;2022-10-16T14:10:22;21.10;99.90
10443;DHT22;5269;51.146;16.986;2022-10-16T16:59:36;18.40;1.00
10443;DHT22;5269;51.146;16.986;2022-10-16T17:02:03;18.30;15.10
10443;DHT22;5269;51.146;16.986;2022-10-16T17:04:30;18.30;99.90
10443;DHT22;5269;51.146;16.986;2022-10-16T17:06:57;18.30;1.00
10443;DHT22;5269;51.146;16.986;2022-10-16T17:09:24;18.20;1.00
10443;DHT22;5269;51.146;16.986;2022-10-16T17:11:51;18.20;88.60
10443;DHT22;5269;51.146;16.986;2022-10-16T17:14:18;18.20;99.90
10443;DHT22;5269;51.146;16.986;2022-10-16T17:16:46;18.10;99.90
10443;DHT22;5269;51.146;16.986;2022-10-16T17:19:18;18.10;99.90
10443;DHT22;5269;51.146;16.986;2022-10-16T17:21:48;18.00;63.20
10443;DHT22;5269;51.146;16.986;2022-10-16T17:24:15;17.90;5.30
10443;DHT22;5269;51.146;16.986;2022-10-16T17:26:43;17.90;1.00
10443;DHT22;5269;51.146;16.986;2022-10-16T17:29:13;17.80;1.00
10443;DHT22;5269;51.146;16.986;2022-10-16T17:31:42;17.70;1.00
10443;DHT22;5269;51.146;16.986;2022-10-16T17:36:42;17.70;1.00
10443;DHT22;5269;51.146;16.986;2022-10-16T17:39:29;17.60;1.00
10443;DHT22;5269;51.146;16.986;2022-10-16T17:41:56;17.60;1.00
10443;DHT22;5269;51.146;16.986;2022-10-16T17:44:23;17.60;1.00
10443;DHT22;5269;51.146;16.986;2022-10-16T17:46:52;17.60;1.00
10443;DHT22;5269;51.146;16.986;2022-10-16T17:49:21;17.60;1.00
10443;DHT22;5269;51.146;16.986;2022-10-16T17:51:49;17.60;1.00
10443;DHT22;5269;51.146;16.986;2022-10-16T17:54:16;17.50;1.00
10443;DHT22;5269;51.146;16.986;2022-10-16T17:56:43;17.50;1.00
10443;DHT22;5269;51.146;16.986;2022-10-16T17:59:12;17.50;1.00
10443;DHT22;5269;51.146;16.986;2022-10-16T18:01:39;17.40;55.90
10443;DHT22;5269;51.146;16.986;2022-10-16T18:04:10;17.40;95.40
10443;DHT22;5269;51.146;16.986;2022-10-16T18:06:41;17.40;99.90
10443;DHT22;5269;51.146;16.986;2022-10-16T18:09:10;17.30;99.90
10443;DHT22;5269;51.146;16.986;2022-10-16T18:11:38;17.30;99.90
10443;DHT22;5269;51.146;16.986;2022-10-16T18:14:05;17.30;99.90
10443;DHT22;5269;51.146;16.986;2022-10-16T18:16:32;17.30;99.90
10443;DHT22;5269;51.146;16.986;2022-10-16T18:19:01;17.20;99.90
10443;DHT22;5269;51.146;16.986;2022-10-16T18:21:28;17.20;99.90
10443;DHT22;5269;51.146;16.986;2022-10-16T18:23:57;17.20;99.90
10443;DHT22;5269;51.146;16.986;2022-10-16T18:26:25;17.20;99.90
10443;DHT22;5269;51.146;16.986;2022-10-16T18:28:52;17.20;99.90
10443;DHT22;5269;51.146;16.986;2022-10-16T18:31:20;17.10;99.90
10443;DHT22;5269;51.146;16.986;2022-10-16T18:33:47;17.20;99.90
10443;DHT22;5269;51.146;16.986;2022-10-16T18:36:17;17.10;99.90
10443;DHT22;5269;51.146;16.986;2022-10-16T18:38:44;17.10;99.90
10443;DHT22;5269;51.146;16.986;2022-10-16T18:41:12;17.10;99.90
10443;DHT22;5269;51.146;16.986;2022-10-16T18:43:39;17.00;99.90
10443;DHT22;5269;51.146;16.986;2022-10-16T18:46:09;17.00;99.90
10443;DHT22;5269;51.146;16.986;2022-10-16T18:48:36;16.90;99.90
10443;DHT22;5269;51.146;16.986;2022-10-16T18:51:08;16.90;99.90
10443;DHT22;5269;51.146;16.986;2022-10-16T18:53:35;16.90;99.90
10443;DHT22;5269;51.146;16.986;2022-10-16T18:56:03;16.90;99.90
10443;DHT22;5269;51.146;16.986;2022-10-16T18:58:32;16.80;99.90
10443;DHT22;5269;51.146;16.986;2022-10-16T19:01:02;16.80;99.90
10443;DHT22;5269;51.146;16.986;2022-10-16T19:03:30;16.80;99.90
10443;DHT22;5269;51.146;16.986;2022-10-16T19:05:59;16.90;99.90
10443;DHT22;5269;51.146;16.986;2022-10-16T19:08:26;16.80;99.90
10443;DHT22;5269;51.146;16.986;2022-10-16T19:10:54;16.90;99.90
10443;DHT22;5269;51.146;16.986;2022-10-16T19:13:21;16.80;99.90
10443;DHT22;5269;51.146;16.986;2022-10-16T19:15:49;16.80;99.90
10443;DHT22;5269;51.146;16.986;2022-10-16T19:18:16;16.80;99.90
10443;DHT22;5269;51.146;16.986;2022-10-16T19:20:43;16.80;99.90
10443;DHT22;5269;51.146;16.986;2022-10-16T19:23:10;16.70;99.90
10443;DHT22;5269;51.146;16.986;2022-10-16T19:25:37;16.70;99.90
10443;DHT22;5269;51.146;16.986;2022-10-16T19:28:06;16.60;99.90
10443;DHT22;5269;51.146;16.986;2022-10-16T19:30:35;16.50;99.90
10443;DHT22;5269;51.146;16.986;2022-10-16T19:33:04;16.40;99.90
10443;DHT22;5269;51.146;16.986;2022-10-16T19:35:31;16.40;99.90
10443;DHT22;5269;51.146;16.986;2022-10-16T19:37:58;16.40;99.90
10443;DHT22;5269;51.146;16.986;2022-10-16T19:40:31;16.30;99.90
10443;DHT22;5269;51.146;16.986;2022-10-16T19:42:58;16.40;99.90
10443;DHT22;5269;51.146;16.986;2022-10-16T19:45:25;16.30;99.90
10443;DHT22;5269;51.146;16.986;2022-10-16T19:47:54;16.30;99.90
10443;DHT22;5269;51.146;16.986;2022-10-16T19:50:23;16.30;99.90
10443;DHT22;5269;51.146;16.986;2022-10-16T19:52:49;16.20;99.90
10443;DHT22;5269;51.146;16.986;2022-10-16T19:55:16;16.30;99.90
10443;DHT22;5269;51.146;16.986;2022-10-16T19:57:43;16.30;99.90
10443;DHT22;5269;51.146;16.986;2022-10-16T20:00:11;16.20;99.90
10443;DHT22;5269;51.146;16.986;2022-10-16T20:02:38;16.10;99.90
10443;DHT22;5269;51.146;16.986;2022-10-16T20:05:06;16.20;99.90
10443;DHT22;5269;51.146;16.986;2022-10-16T20:07:34;16.00;99.90
10443;DHT22;5269;51.146;16.986;2022-10-16T20:10:01;16.00;99.90
10443;DHT22;5269;51.146;16.986;2022-10-16T20:12:28;15.90;99.90
10443;DHT22;5269;51.146;16.986;2022-10-16T20:14:55;15.90;99.90
10443;DHT22;5269;51.146;16.986;2022-10-16T20:17:21;15.80;99.90
10443;DHT22;5269;51.146;16.986;2022-10-16T20:19:48;15.70;99.90
10443;DHT22;5269;51.146;16.986;2022-10-16T20:22:15;15.50;99.90
10443;DHT22;5269;51.146;16.986;2022-10-16T20:24:43;15.40;99.90
10443;DHT22;5269;51.146;16.986;2022-10-16T20:27:10;15.40;99.90
10443;DHT22;5269;51.146;16.986;2022-10-16T20:29:37;15.30;99.90
10443;DHT22;5269;51.146;16.986;2022-10-16T20:32:04;15.20;99.90
10443;DHT22;5269;51.146;16.986;2022-10-16T20:34:31;15.10;99.90
10443;DHT22;5269;51.146;16.986;2022-10-16T20:36:58;15.00;99.90
10443;DHT22;5269;51.146;16.986;2022-10-16T20:39:25;14.90;99.90
10443;DHT22;5269;51.146;16.986;2022-10-16T20:41:53;15.00;99.90
10443;DHT22;5269;51.146;16.986;2022-10-16T20:44:20;15.00;99.90
10443;DHT22;5269;51.146;16.986;2022-10-16T20:46:47;15.00;99.90
10443;DHT22;5269;51.146;16.986;2022-10-16T20:49:13;14.90;99.90
10443;DHT22;5269;51.146;16.986;2022-10-16T20:51:41;14.90;99.90
10443;DHT22;5269;51.146;16.986;2022-10-16T20:54:10;14.80;99.90
10443;DHT22;5269;51.146;16.986;2022-10-16T20:56:38;14.70;99.90
10443;DHT22;5269;51.146;16.986;2022-10-16T20:59:07;14.60;99.90
10443;DHT22;5269;51.146;16.986;2022-10-16T21:01:34;14.50;99.90
10443;DHT22;5269;51.146;16.986;2022-10-16T21:04:04;14.50;99.90
10443;DHT22;5269;51.146;16.986;2022-10-16T21:06:32;14.50;99.90
10443;DHT22;5269;51.146;16.986;2022-10-16T21:09:00;14.40;99.90
10443;DHT22;5269;51.146;16.986;2022-10-16T21:11:29;14.40;99.90
10443;DHT22;5269;51.146;16.986;2022-10-16T21:13:58;14.40;99.90
10443;DHT22;5269;51.146;16.986;2022-10-16T21:16:27;14.30;99.90
10443;DHT22;5269;51.146;16.986;2022-10-16T21:18:54;14.30;99.90
10443;DHT22;5269;51.146;16.986;2022-10-16T21:21:24;14.20;99.90
10443;DHT22;5269;51.146;16.986;2022-10-16T21:23:52;14.10;99.90
10443;DHT22;5269;51.146;16.986;2022-10-16T21:26:20;14.20;99.90
10443;DHT22;5269;51.146;16.986;2022-10-16T21:28:51;14.10;99.90
10443;DHT22;5269;51.146;16.986;2022-10-16T21:31:19;14.00;99.90
10443;DHT22;5269;51.146;16.986;2022-10-16T21:33:48;13.90;99.90
10443;DHT22;5269;51.146;16.986;2022-10-16T21:36:17;13.90;99.90
10443;DHT22;5269;51.146;16.986;2022-10-16T21:38:45;13.90;99.90
10443;DHT22;5269;51.146;16.986;2022-10-16T21:41:14;13.80;99.90
10443;DHT22;5269;51.146;16.986;2022-10-16T21:43:41;13.80;99.90
10443;DHT22;5269;51.146;16.986;2022-10-16T21:46:09;13.80;99.90
10443;DHT22;5269;51.146;16.986;2022-10-16T21:48:36;13.70;99.90
10443;DHT22;5269;51.146;16.986;2022-10-16T21:51:05;13.70;99.90
10443;DHT22;5269;51.146;16.986;2022-10-16T21:53:32;13.70;99.90
10443;DHT22;5269;51.146;16.986;2022-10-16T21:55:59;13.70;99.90
10443;DHT22;5269;51.146;16.986;2022-10-16T21:58:25;13.70;99.90
10443;DHT22;5269;51.146;16.986;2022-10-16T22:00:52;13.70;99.90
10443;DHT22;5269;51.146;16.986;2022-10-16T22:03:19;13.60;99.90
10443;DHT22;5269;51.146;16.986;2022-10-16T22:05:46;13.50;99.90
10443;DHT22;5269;51.146;16.986;2022-10-16T22:08:14;13.50;99.90
10443;DHT22;5269;51.146;16.986;2022-10-16T22:10:41;13.50;99.90
10443;DHT22;5269;51.146;16.986;2022-10-16T22:13:08;13.50;99.90
10443;DHT22;5269;51.146;16.986;2022-10-16T22:15:35;13.40;99.90
10443;DHT22;5269;51.146;16.986;2022-10-16T22:18:02;13.40;99.90
10443;DHT22;5269;51.146;16.986;2022-10-16T22:20:29;13.40;99.90
10443;DHT22;5269;51.146;16.986;2022-10-16T22:22:56;13.30;99.90
10443;DHT22;5269;51.146;16.986;2022-10-16T22:25:24;13.20;99.90
10443;DHT22;5269;51.146;16.986;2022-10-16T22:27:51;13.10;99.90
10443;DHT22;5269;51.146;16.986;2022-10-16T22:30:17;13.00;99.90
10443;DHT22;5269;51.146;16.986;2022-10-16T22:32:44;12.90;99.90
10443;DHT22;5269;51.146;16.986;2022-10-16T22:35:11;12.80;99.90
10443;DHT22;5269;51.146;16.986;2022-10-16T22:37:38;12.80;99.90
10443;DHT22;5269;51.146;16.986;2022-10-16T22:40:06;12.80;99.90
10443;DHT22;5269;51.146;16.986;2022-10-16T22:42:34;12.80;99.90
10443;DHT22;5269;51.146;16.986;2022-10-16T22:45:01;12.80;99.90
10443;DHT22;5269;51.146;16.986;2022-10-16T22:47:28;12.70;99.90
10443;DHT22;5269;51.146;16.986;2022-10-16T22:49:55;12.70;99.90
10443;DHT22;5269;51.146;16.986;2022-10-16T22:52:22;12.70;99.90
10443;DHT22;5269;51.146;16.986;2022-10-16T22:54:49;12.70;99.90
10443;DHT22;5269;51.146;16.986;2022-10-16T22:57:15;12.60;99.90
10443;DHT22;5269;51.146;16.986;2022-10-16T22:59:44;12.50;99.90
10443;DHT22;5269;51.146;16.986;2022-10-16T23:02:12;12.60;99.90
10443;DHT22;5269;51.146;16.986;2022-10-16T23:04:39;12.70;99.90
10443;DHT22;5269;51.146;16.986;2022-10-16T23:07:06;12.90;99.90
10443;DHT22;5269;51.146;16.986;2022-10-16T23:09:33;12.90;99.90
10443;DHT22;5269;51.146;16.986;2022-10-16T23:12:00;12.90;99.90
10443;DHT22;5269;51.146;16.986;2022-10-16T23:14:26;12.90;99.90
10443;DHT22;5269;51.146;16.986;2022-10-16T23:16:55;12.80;99.90
10443;DHT22;5269;51.146;16.986;2022-10-16T23:19:22;12.90;99.90
10443;DHT22;5269;51.146;16.986;2022-10-16T23:21:48;12.80;99.90
10443;DHT22;5269;51.146;16.986;2022-10-16T23:24:15;12.70;99.90
10443;DHT22;5269;51.146;16.986;2022-10-16T23:26:42;12.70;99.90
10443;DHT22;5269;51.146;16.986;2022-10-16T23:29:09;13.00;99.90
10443;DHT22;5269;51.146;16.986;2022-10-16T23:31:36;12.90;99.90
10443;DHT22;5269;51.146;16.986;2022-10-16T23:34:04;12.90;99.90
10443;DHT22;5269;51.146;16.986;2022-10-16T23:36:31;12.90;99.90
10443;DHT22;5269;51.146;16.986;2022-10-16T23:38:58;12.90;99.90
10443;DHT22;5269;51.146;16.986;2022-10-16T23:41:25;12.80;99.90
10443;DHT22;5269;51.146;16.986;2022-10-16T23:43:51;12.80;99.90
10443;DHT22;5269;51.146;16.986;2022-10-16T23:46:19;12.80;99.90
10443;DHT22;5269;51.146;16.986;2022-10-16T23:48:45;12.60;99.90
10443;DHT22;5269;51.146;16.986;2022-10-16T23:51:14;12.50;99.90
10443;DHT22;5269;51.146;16.986;2022-10-16T23:53:41;12.40;99.90
10443;DHT22;5269;51.146;16.986;2022-10-16T23:56:08;12.30;99.90
10443;DHT22;5269;51.146;16.986;2022-10-16T23:58:35;12.20;99.90
